Tipton, Illinois
Current Conditions -  °F | °C
As of 1:53 AM on Sunday 21 Dec 2014 (Local Time) from KCPS Reporting Station
Overcast Overcast  
Wind Chill: 34°   Ceiling: 2500
Heat Index: 40°   Visibility: 10mi
Dew Point: 34°   Wind: 8mph
Humidity: 79%   Direction: 150°SSE
Pressure: 30.24"   Gusts: NA
Location:  38.3034°N, 90.1358°W
Report Text: KCPS 210753Z AUTO 15007KT 10SM OVC025 04/01 A3024 RMK AO2 SLP243 T00440011 TSNO
Loading
Personal Weather Stations






























Interactive Weather Map New forecast layout! Learn more

10-Day Weather Forecast

Advertisements
Track Severe Weather on mobile